createdAt,value
2018-12-23T00:00:00.194Z,5.3
2018-12-23T00:00:12.621Z,5.3
2018-12-23T00:00:24.997Z,5.3
2018-12-23T00:00:37.381Z,5.3
2018-12-23T00:00:51.738Z,5.3
2018-12-23T00:01:04.121Z,5.3
2018-12-23T00:01:16.483Z,5.3
2018-12-23T00:01:28.853Z,5.3
2018-12-23T00:01:41.235Z,5.3
2018-12-23T00:01:53.691Z,5.3
2018-12-23T00:02:06.042Z,5.3
2018-12-23T00:02:18.417Z,5.3
2018-12-23T00:02:30.762Z,5.3
2018-12-23T00:02:43.121Z,5.3
2018-12-23T00:02:55.494Z,5.3
2018-12-23T00:03:07.858Z,5.3
2018-12-23T00:03:20.229Z,5.3
2018-12-23T00:03:32.608Z,5.3
2018-12-23T00:03:45.094Z,5.3
2018-12-23T00:03:57.465Z,5.3
2018-12-23T00:04:09.820Z,5.3
2018-12-23T00:04:22.202Z,5.3
2018-12-23T00:04:34.572Z,5.3
2018-12-23T00:04:46.914Z,5.3
2018-12-23T00:04:59.349Z,5.3
2018-12-23T00:05:19.330Z,5.3
2018-12-23T00:05:31.699Z,5.3
2018-12-23T00:05:44.144Z,5.3
2018-12-23T00:05:56.606Z,5.3
2018-12-23T00:06:08.943Z,5.3
2018-12-23T00:06:21.445Z,5.3
2018-12-23T00:06:33.837Z,5.3
2018-12-23T00:06:46.194Z,5.3
2018-12-23T00:06:58.540Z,5.3
2018-12-23T00:07:10.893Z,5.3
2018-12-23T00:07:23.245Z,5.3
2018-12-23T00:07:35.611Z,5.3
2018-12-23T00:07:47.972Z,5.21
2018-12-23T00:08:00.337Z,5.21
2018-12-23T00:08:12.691Z,5.21
2018-12-23T00:08:25.256Z,5.21
2018-12-23T00:08:37.718Z,5.21
2018-12-23T00:08:50.110Z,5.21
2018-12-23T00:09:02.463Z,5.21
2018-12-23T00:09:14.811Z,5.21
2018-12-23T00:09:27.204Z,5.21
2018-12-23T00:09:39.559Z,5.21
2018-12-23T00:09:51.928Z,5.21
2018-12-23T00:10:04.287Z,5.21
2018-12-23T00:10:16.710Z,5.21
2018-12-23T00:10:29.081Z,5.21
2018-12-23T00:10:41.501Z,5.21
2018-12-23T00:10:53.900Z,5.21
2018-12-23T00:11:06.283Z,5.21
2018-12-23T00:11:18.617Z,5.21
2018-12-23T00:11:30.970Z,5.21
2018-12-23T00:11:43.386Z,5.21
2018-12-23T00:11:55.729Z,5.21
2018-12-23T00:12:08.188Z,5.21
2018-12-23T00:12:20.542Z,5.21
2018-12-23T00:12:32.884Z,5.21
2018-12-23T00:12:45.253Z,5.21
2018-12-23T00:12:57.585Z,5.21
2018-12-23T00:13:09.923Z,5.21
2018-12-23T00:13:22.296Z,5.21
2018-12-23T00:13:34.668Z,5.21
2018-12-23T00:13:47.159Z,5.21
2018-12-23T00:13:59.552Z,5.21
2018-12-23T00:14:11.904Z,5.21
2018-12-23T00:14:24.274Z,5.21
2018-12-23T00:14:36.633Z,5.21
2018-12-23T00:14:49.004Z,5.21
2018-12-23T00:15:01.400Z,5.21
2018-12-23T00:15:13.740Z,5.21
2018-12-23T00:15:26.112Z,5.21
2018-12-23T00:15:38.584Z,5.21
2018-12-23T00:15:50.944Z,5.21
2018-12-23T00:16:03.307Z,5.21
2018-12-23T00:16:15.750Z,5.21
2018-12-23T00:16:28.116Z,5.21
2018-12-23T00:16:40.479Z,5.21
2018-12-23T00:16:52.837Z,5.21
2018-12-23T00:17:05.182Z,5.21
2018-12-23T00:17:17.535Z,5.21
2018-12-23T00:17:29.990Z,5.21
2018-12-23T00:17:42.447Z,5.21
2018-12-23T00:17:54.823Z,4.3
2018-12-23T00:18:07.234Z,4.3
2018-12-23T00:18:19.704Z,4.3
2018-12-23T00:18:32.052Z,4.3
2018-12-23T00:18:44.413Z,4.3
2018-12-23T00:18:56.856Z,4.3
2018-12-23T00:19:09.213Z,4.3
2018-12-23T00:19:21.574Z,4.3
2018-12-23T00:19:34.029Z,4.3
2018-12-23T00:19:46.393Z,4.3
2018-12-23T00:19:58.874Z,4.3
2018-12-23T00:20:11.231Z,4.3
2018-12-23T00:20:23.645Z,4.3
2018-12-23T00:20:35.995Z,4.3
2018-12-23T00:20:48.350Z,4.3
2018-12-23T00:21:02.887Z,4.3
2018-12-23T00:21:15.270Z,4.3
2018-12-23T00:21:27.650Z,4.3
2018-12-23T00:21:40.017Z,4.3
2018-12-23T00:21:52.486Z,4.3
2018-12-23T00:22:04.866Z,4.3
2018-12-23T00:22:17.233Z,4.3
2018-12-23T00:22:29.619Z,4.3
2018-12-23T00:22:41.974Z,4.3
2018-12-23T00:22:54.324Z,4.3
2018-12-23T00:23:06.674Z,4.3
2018-12-23T00:23:19.071Z,4.3
2018-12-23T00:23:31.422Z,4.3
2018-12-23T00:23:43.895Z,4.3
2018-12-23T00:23:56.263Z,4.3
2018-12-23T00:24:08.647Z,4.3
2018-12-23T00:24:21.144Z,4.3
2018-12-23T00:24:33.514Z,4.3
2018-12-23T00:24:45.885Z,4.3
2018-12-23T00:24:58.237Z,4.3
2018-12-23T00:25:10.616Z,4.3
2018-12-23T00:25:23.052Z,4.3
2018-12-23T00:25:35.403Z,4.3
2018-12-23T00:25:47.812Z,4.3
2018-12-23T00:26:00.178Z,4.3
2018-12-23T00:26:12.530Z,4.3
2018-12-23T00:26:24.909Z,4.3
2018-12-23T00:26:37.262Z,4.3
2018-12-23T00:26:49.792Z,4.3
2018-12-23T00:27:03.617Z,4.3
2018-12-23T00:27:16.253Z,4.3
2018-12-23T00:27:28.781Z,4.3
2018-12-23T00:27:41.193Z,4.3
2018-12-23T00:27:53.540Z,3.1
2018-12-23T00:28:05.902Z,3.1
2018-12-23T00:28:18.245Z,3.1
2018-12-23T00:28:30.622Z,3.1
2018-12-23T00:28:42.997Z,3.1
2018-12-23T00:28:55.438Z,3.1
2018-12-23T00:29:07.799Z,3.1
2018-12-23T00:29:20.263Z,3.1
2018-12-23T00:29:32.649Z,3.1
2018-12-23T00:29:44.996Z,3.1
2018-12-23T00:29:57.341Z,3.1
2018-12-23T00:30:09.709Z,3.1
2018-12-23T00:30:22.146Z,3.1
2018-12-23T00:30:34.519Z,3.1
2018-12-23T00:30:46.892Z,3.1
2018-12-23T00:30:59.322Z,3.1
2018-12-23T00:31:11.694Z,3.1
2018-12-23T00:31:24.054Z,3.1
2018-12-23T00:31:36.457Z,3.1
2018-12-23T00:31:48.803Z,3.1
2018-12-23T00:32:01.245Z,3.1
2018-12-23T00:32:13.620Z,3.1
2018-12-23T00:32:25.976Z,3.1
2018-12-23T00:32:38.348Z,3.1
2018-12-23T00:32:50.733Z,3.1
2018-12-23T00:33:03.173Z,3.1
2018-12-23T00:33:15.554Z,3.1
2018-12-23T00:33:30.027Z,3.1
2018-12-23T00:33:42.398Z,3.1
2018-12-23T00:33:54.757Z,3.1
2018-12-23T00:34:07.118Z,3.1
2018-12-23T00:34:19.516Z,3.1
2018-12-23T00:34:31.901Z,3.1
2018-12-23T00:34:44.271Z,3.1
2018-12-23T00:34:56.627Z,3.1
2018-12-23T00:35:09.000Z,3.1
2018-12-23T00:35:30.151Z,3.1
2018-12-23T00:35:42.577Z,3.1
2018-12-23T00:35:55.210Z,3.1
2018-12-23T00:36:07.577Z,3.1
2018-12-23T00:36:20.040Z,3.1
2018-12-23T00:36:32.401Z,3.1
2018-12-23T00:36:44.876Z,3.1
2018-12-23T00:36:57.248Z,3.1
2018-12-23T00:37:09.627Z,3.1
2018-12-23T00:37:22.139Z,3.1
2018-12-23T00:37:34.486Z,3.1
2018-12-23T00:37:46.872Z,3.1
2018-12-23T00:37:59.220Z,3.8
2018-12-23T00:38:11.684Z,3.8
2018-12-23T00:38:24.052Z,3.8
2018-12-23T00:38:36.414Z,3.8
2018-12-23T00:38:48.879Z,3.8
2018-12-23T00:39:01.346Z,3.8
2018-12-23T00:39:13.721Z,3.8
2018-12-23T00:39:26.264Z,3.8
2018-12-23T00:39:38.627Z,3.8
2018-12-23T00:39:50.996Z,3.8
2018-12-23T00:40:03.664Z,3.8
2018-12-23T00:40:16.026Z,3.8
2018-12-23T00:40:28.374Z,3.8
2018-12-23T00:40:40.742Z,3.8
2018-12-23T00:40:53.071Z,3.8
2018-12-23T00:41:05.494Z,3.8
2018-12-23T00:41:17.998Z,3.8
2018-12-23T00:41:30.417Z,3.8
2018-12-23T00:41:44.576Z,3.8
2018-12-23T00:41:56.934Z,3.8
2018-12-23T00:42:09.289Z,3.8
2018-12-23T00:42:21.646Z,3.8
2018-12-23T00:42:34.101Z,3.8
2018-12-23T00:42:46.476Z,3.8
2018-12-23T00:42:58.838Z,3.8
2018-12-23T00:43:11.262Z,3.8
2018-12-23T00:43:23.644Z,3.8
2018-12-23T00:43:36.010Z,3.8
2018-12-23T00:43:48.423Z,3.8
2018-12-23T00:44:00.760Z,3.8
2018-12-23T00:44:13.226Z,3.8
2018-12-23T00:44:25.583Z,3.8
2018-12-23T00:44:37.927Z,3.8
2018-12-23T00:44:50.285Z,3.8
2018-12-23T00:45:02.650Z,3.8
2018-12-23T00:45:15.017Z,3.8
2018-12-23T00:45:27.494Z,3.8
2018-12-23T00:45:40.033Z,3.8
2018-12-23T00:45:52.413Z,3.8
2018-12-23T00:46:04.793Z,3.8
2018-12-23T00:46:17.260Z,3.8
2018-12-23T00:46:29.641Z,3.8
2018-12-23T00:46:42.176Z,3.8
2018-12-23T00:46:54.544Z,3.8
2018-12-23T00:47:07.033Z,3.8
2018-12-23T00:47:19.399Z,3.8
2018-12-23T00:47:31.748Z,3.8
2018-12-23T00:47:44.098Z,3.8
2018-12-23T00:47:56.449Z,3.75
2018-12-23T00:48:08.806Z,3.75
2018-12-23T00:48:21.145Z,3.75
2018-12-23T00:48:33.639Z,3.75
2018-12-23T00:48:45.998Z,3.75
2018-12-23T00:48:58.442Z,3.75
2018-12-23T00:49:10.804Z,3.75
2018-12-23T00:49:23.159Z,3.75
2018-12-23T00:49:35.590Z,3.75
2018-12-23T00:49:47.983Z,3.75
2018-12-23T00:50:00.343Z,3.75
2018-12-23T00:50:12.929Z,3.75
2018-12-23T00:50:25.313Z,3.75
2018-12-23T00:50:37.659Z,3.75
2018-12-23T00:50:50.029Z,3.75
2018-12-23T00:51:02.383Z,3.75
2018-12-23T00:51:14.866Z,3.75
2018-12-23T00:51:27.205Z,3.75
2018-12-23T00:51:39.539Z,3.75
2018-12-23T00:51:51.905Z,3.75
2018-12-23T00:52:04.258Z,3.75
2018-12-23T00:52:16.612Z,3.75
2018-12-23T00:52:29.117Z,3.75
2018-12-23T00:52:41.549Z,3.75
2018-12-23T00:52:53.957Z,3.75
2018-12-23T00:53:06.326Z,3.75
2018-12-23T00:53:18.751Z,3.75
2018-12-23T00:53:31.126Z,3.75
2018-12-23T00:53:43.490Z,3.75
2018-12-23T00:53:55.833Z,3.75
2018-12-23T00:54:08.346Z,3.75
2018-12-23T00:54:20.726Z,3.75
2018-12-23T00:54:33.102Z,3.75
2018-12-23T00:54:45.473Z,3.75
2018-12-23T00:54:57.823Z,3.75
2018-12-23T00:55:10.475Z,3.75
2018-12-23T00:55:22.849Z,3.75
2018-12-23T00:55:35.182Z,3.75
2018-12-23T00:55:47.540Z,3.75
2018-12-23T00:55:59.874Z,3.75
2018-12-23T00:56:12.248Z,3.75
2018-12-23T00:56:24.579Z,3.75
2018-12-23T00:56:36.967Z,3.75
2018-12-23T00:56:49.304Z,3.75
2018-12-23T00:57:01.692Z,3.75
2018-12-23T00:57:14.052Z,3.75
2018-12-23T00:57:28.339Z,3.75
2018-12-23T00:57:40.765Z,3.75
2018-12-23T00:57:53.115Z,3.58
2018-12-23T00:58:05.496Z,3.58
2018-12-23T00:58:17.956Z,3.58
2018-12-23T00:58:30.302Z,3.58
2018-12-23T00:58:42.661Z,3.58
2018-12-23T00:58:54.997Z,3.58
2018-12-23T00:59:07.330Z,3.58
2018-12-23T00:59:19.687Z,3.58
2018-12-23T00:59:32.036Z,3.58
2018-12-23T00:59:44.453Z,3.58
2018-12-23T00:59:56.807Z,3.58
2018-12-23T01:00:09.208Z,3.58
2018-12-23T01:00:21.687Z,3.58
2018-12-23T01:00:34.065Z,3.58
2018-12-23T01:00:46.435Z,3.58
2018-12-23T01:00:58.894Z,3.58
2018-12-23T01:01:11.298Z,3.58
2018-12-23T01:01:23.653Z,3.58
2018-12-23T01:01:36.005Z,3.58
2018-12-23T01:01:48.416Z,3.58
2018-12-23T01:02:00.763Z,3.58
2018-12-23T01:02:13.117Z,3.58
2018-12-23T01:02:25.481Z,3.58
2018-12-23T01:02:37.987Z,3.58
2018-12-23T01:02:50.330Z,3.58
2018-12-23T01:03:02.681Z,3.58
2018-12-23T01:03:15.022Z,3.58
2018-12-23T01:03:27.375Z,3.58
2018-12-23T01:03:39.787Z,3.58
2018-12-23T01:03:52.122Z,3.58
2018-12-23T01:04:04.566Z,3.58
2018-12-23T01:04:16.935Z,3.58
2018-12-23T01:04:29.336Z,3.58
2018-12-23T01:04:41.779Z,3.58
2018-12-23T01:04:54.214Z,3.58
2018-12-23T01:05:06.576Z,3.58
2018-12-23T01:05:19.048Z,3.58
2018-12-23T01:05:40.007Z,3.58
2018-12-23T01:05:52.365Z,3.58
2018-12-23T01:06:04.754Z,3.58
2018-12-23T01:06:17.108Z,3.58
2018-12-23T01:06:29.600Z,3.58
2018-12-23T01:06:41.955Z,3.58
2018-12-23T01:06:54.330Z,3.58
2018-12-23T01:07:06.671Z,3.58
2018-12-23T01:07:19.049Z,3.58
2018-12-23T01:07:31.397Z,3.58
2018-12-23T01:07:43.735Z,3.58
2018-12-23T01:07:56.084Z,3.81
2018-12-23T01:08:08.424Z,3.81
2018-12-23T01:08:20.868Z,3.81
2018-12-23T01:08:33.277Z,3.81
2018-12-23T01:08:45.625Z,3.81
2018-12-23T01:08:57.967Z,3.81
2018-12-23T01:09:10.347Z,3.81
2018-12-23T01:09:22.715Z,3.81
2018-12-23T01:09:37.350Z,3.81
2018-12-23T01:09:49.693Z,3.81
2018-12-23T01:10:02.030Z,3.81
2018-12-23T01:10:14.368Z,3.81
2018-12-23T01:10:26.710Z,3.81
2018-12-23T01:10:39.058Z,3.81
2018-12-23T01:10:51.411Z,3.81
2018-12-23T01:11:03.917Z,3.81
2018-12-23T01:11:16.475Z,3.81
2018-12-23T01:11:28.811Z,3.81
2018-12-23T01:11:41.168Z,3.81
2018-12-23T01:11:53.508Z,3.81
2018-12-23T01:12:05.851Z,3.81
2018-12-23T01:12:18.222Z,3.81
2018-12-23T01:12:30.562Z,3.81
2018-12-23T01:12:42.928Z,3.81
2018-12-23T01:12:55.272Z,3.81
2018-12-23T01:13:07.664Z,3.81
2018-12-23T01:13:19.997Z,3.81
2018-12-23T01:13:32.335Z,3.81
2018-12-23T01:13:44.874Z,3.81
2018-12-23T01:13:57.274Z,3.81
2018-12-23T01:14:09.602Z,3.81
2018-12-23T01:14:22.068Z,3.81
2018-12-23T01:14:34.429Z,3.81
2018-12-23T01:14:46.771Z,3.81
2018-12-23T01:14:59.109Z,3.81
2018-12-23T01:15:11.465Z,3.81
2018-12-23T01:15:23.852Z,3.81
2018-12-23T01:15:36.192Z,3.81
2018-12-23T01:15:48.556Z,3.81
2018-12-23T01:16:00.996Z,3.81
2018-12-23T01:16:13.346Z,3.81
2018-12-23T01:16:25.711Z,3.81
2018-12-23T01:16:38.046Z,3.81
2018-12-23T01:16:50.430Z,3.81
2018-12-23T01:17:02.796Z,3.81
2018-12-23T01:17:15.267Z,3.81
2018-12-23T01:17:27.627Z,3.81
2018-12-23T01:17:40.120Z,3.81
2018-12-23T01:17:52.513Z,3.7
2018-12-23T01:18:04.872Z,3.7
2018-12-23T01:18:17.427Z,3.7
2018-12-23T01:18:29.875Z,3.7
2018-12-23T01:18:42.215Z,3.7
2018-12-23T01:18:54.547Z,3.7
2018-12-23T01:19:06.907Z,3.7
2018-12-23T01:19:19.247Z,3.7
2018-12-23T01:19:31.588Z,3.7
2018-12-23T01:19:43.925Z,3.7
2018-12-23T01:19:56.491Z,3.7
2018-12-23T01:20:08.833Z,3.7
2018-12-23T01:20:21.202Z,3.7
2018-12-23T01:20:33.545Z,3.7
2018-12-23T01:20:45.956Z,3.7
2018-12-23T01:20:58.306Z,3.7
2018-12-23T01:21:10.664Z,3.7
2018-12-23T01:21:23.018Z,3.7
2018-12-23T01:21:35.355Z,3.7
2018-12-23T01:21:47.700Z,3.7
2018-12-23T01:22:00.061Z,3.7
2018-12-23T01:22:12.415Z,3.7
2018-12-23T01:22:24.903Z,3.7
2018-12-23T01:22:37.248Z,3.7
2018-12-23T01:22:49.612Z,3.7
2018-12-23T01:23:01.964Z,3.7
2018-12-23T01:23:14.317Z,3.7
2018-12-23T01:23:26.687Z,3.7
2018-12-23T01:23:39.025Z,3.7
2018-12-23T01:23:51.446Z,3.7
2018-12-23T01:24:03.850Z,3.7
2018-12-23T01:24:16.297Z,3.7
2018-12-23T01:24:28.643Z,3.7
2018-12-23T01:24:40.998Z,3.7
2018-12-23T01:24:53.438Z,3.7
2018-12-23T01:25:05.782Z,3.7
2018-12-23T01:25:18.149Z,3.7
2018-12-23T01:25:30.481Z,3.7
2018-12-23T01:25:42.823Z,3.7
2018-12-23T01:25:55.167Z,3.7
2018-12-23T01:26:07.556Z,3.7
2018-12-23T01:26:19.906Z,3.7
2018-12-23T01:26:32.268Z,3.7
2018-12-23T01:26:44.696Z,3.7
2018-12-23T01:26:57.058Z,3.7
2018-12-23T01:27:09.605Z,3.7
2018-12-23T01:27:22.114Z,3.7
2018-12-23T01:27:34.566Z,3.7
2018-12-23T01:27:46.913Z,3.7
2018-12-23T01:27:59.259Z,4.03
2018-12-23T01:28:11.594Z,4.03
2018-12-23T01:28:24.022Z,4.03
2018-12-23T01:28:36.372Z,4.03
2018-12-23T01:28:48.706Z,4.03
2018-12-23T01:29:01.065Z,4.03
2018-12-23T01:29:13.423Z,4.03
2018-12-23T01:29:25.764Z,4.03
2018-12-23T01:29:38.112Z,4.03
2018-12-23T01:29:50.457Z,4.03
2018-12-23T01:30:02.915Z,4.03
2018-12-23T01:30:15.253Z,4.03
2018-12-23T01:30:27.601Z,4.03
2018-12-23T01:30:39.983Z,4.03
2018-12-23T01:30:52.320Z,4.03
2018-12-23T01:31:04.678Z,4.03
2018-12-23T01:31:17.029Z,4.03
2018-12-23T01:31:29.381Z,4.03
2018-12-23T01:31:41.756Z,4.03
2018-12-23T01:31:54.108Z,4.03
2018-12-23T01:32:06.454Z,4.03
2018-12-23T01:32:18.795Z,4.03
2018-12-23T01:32:31.160Z,4.03
2018-12-23T01:32:43.502Z,4.03
2018-12-23T01:32:55.845Z,4.03
2018-12-23T01:33:08.194Z,4.03
2018-12-23T01:33:20.563Z,4.03
2018-12-23T01:33:32.902Z,4.03
2018-12-23T01:33:45.241Z,4.03
2018-12-23T01:33:57.591Z,4.03
2018-12-23T01:34:12.158Z,4.03
2018-12-23T01:34:24.523Z,4.03
2018-12-23T01:34:44.849Z,4.03
2018-12-23T01:34:57.198Z,4.03
2018-12-23T01:35:09.554Z,4.03
2018-12-23T01:35:22.016Z,4.03
2018-12-23T01:35:42.799Z,4.03
2018-12-23T01:35:55.299Z,4.03
2018-12-23T01:36:07.664Z,4.03
2018-12-23T01:36:20.105Z,4.03
2018-12-23T01:36:32.460Z,4.03
2018-12-23T01:36:44.943Z,4.03
2018-12-23T01:36:57.286Z,4.03
2018-12-23T01:37:09.615Z,4.03
2018-12-23T01:37:22.081Z,4.03
2018-12-23T01:37:34.428Z,4.03
2018-12-23T01:37:46.875Z,4.03
2018-12-23T01:37:59.211Z,3.51
2018-12-23T01:38:11.561Z,3.51
2018-12-23T01:38:23.914Z,3.51
2018-12-23T01:38:36.253Z,3.51
2018-12-23T01:38:48.646Z,3.51
2018-12-23T01:39:01.082Z,3.51
2018-12-23T01:39:13.427Z,3.51
2018-12-23T01:39:25.933Z,3.51
2018-12-23T01:39:38.280Z,3.51
2018-12-23T01:39:50.698Z,3.51
2018-12-23T01:40:03.189Z,3.51
2018-12-23T01:40:15.667Z,3.51
2018-12-23T01:40:28.028Z,3.51
2018-12-23T01:40:40.364Z,3.51
2018-12-23T01:40:52.718Z,3.51
2018-12-23T01:41:06.942Z,3.51
2018-12-23T01:41:19.386Z,3.51
2018-12-23T01:41:31.740Z,3.51
2018-12-23T01:41:44.106Z,3.51
2018-12-23T01:41:56.431Z,3.51
2018-12-23T01:42:08.787Z,3.51
2018-12-23T01:42:21.129Z,3.51
2018-12-23T01:42:33.470Z,3.51
2018-12-23T01:42:45.813Z,3.51
2018-12-23T01:42:58.143Z,3.51
2018-12-23T01:43:10.613Z,3.51
2018-12-23T01:43:23.056Z,3.51
2018-12-23T01:43:35.399Z,3.51
2018-12-23T01:43:47.733Z,3.51
2018-12-23T01:44:00.064Z,3.51
2018-12-23T01:44:12.400Z,3.51
2018-12-23T01:44:24.776Z,3.51
2018-12-23T01:44:37.114Z,3.51
2018-12-23T01:44:49.448Z,3.51
2018-12-23T01:45:01.792Z,3.51
2018-12-23T01:45:14.190Z,3.51
2018-12-23T01:45:26.568Z,3.51
2018-12-23T01:45:39.094Z,3.51
2018-12-23T01:45:51.541Z,3.51
2018-12-23T01:46:03.872Z,3.51
2018-12-23T01:46:16.218Z,3.51
2018-12-23T01:46:28.622Z,3.51
2018-12-23T01:46:41.217Z,3.51
2018-12-23T01:46:53.544Z,3.51
2018-12-23T01:47:05.920Z,3.51
2018-12-23T01:47:18.269Z,3.51
2018-12-23T01:47:30.610Z,3.51
2018-12-23T01:47:42.952Z,3.51
2018-12-23T01:47:55.289Z,3.25
2018-12-23T01:48:07.720Z,3.25
2018-12-23T01:48:20.072Z,3.25
2018-12-23T01:48:32.492Z,3.25
2018-12-23T01:48:44.838Z,3.25
2018-12-23T01:48:57.181Z,3.25
2018-12-23T01:49:09.521Z,3.25
2018-12-23T01:49:21.865Z,3.25
2018-12-23T01:49:34.203Z,3.25
2018-12-23T01:49:46.557Z,3.25
2018-12-23T01:49:58.936Z,3.25
2018-12-23T01:50:11.521Z,3.25
2018-12-23T01:50:23.872Z,3.25
2018-12-23T01:50:36.207Z,3.25
2018-12-23T01:50:48.547Z,3.25
2018-12-23T01:51:00.926Z,3.25
2018-12-23T01:51:13.386Z,3.25
2018-12-23T01:51:25.732Z,3.25
2018-12-23T01:51:38.064Z,3.25
2018-12-23T01:51:50.400Z,3.25
2018-12-23T01:52:02.841Z,3.25
2018-12-23T01:52:15.178Z,3.25
2018-12-23T01:52:27.796Z,3.25
2018-12-23T01:52:40.147Z,3.25
2018-12-23T01:52:52.481Z,3.25
2018-12-23T01:53:04.823Z,3.25
2018-12-23T01:53:17.262Z,3.25
2018-12-23T01:53:29.602Z,3.25
2018-12-23T01:53:41.951Z,3.25
2018-12-23T01:53:54.283Z,3.25
2018-12-23T01:54:06.631Z,3.25
2018-12-23T01:54:18.972Z,3.25
2018-12-23T01:54:31.299Z,3.25
2018-12-23T01:54:43.658Z,3.25
2018-12-23T01:54:56.002Z,3.25
2018-12-23T01:55:08.526Z,3.25
2018-12-23T01:55:20.857Z,3.25
2018-12-23T01:55:33.271Z,3.25
2018-12-23T01:55:45.625Z,3.25
2018-12-23T01:55:57.962Z,3.25
2018-12-23T01:56:10.312Z,3.25
2018-12-23T01:56:22.665Z,3.25
2018-12-23T01:56:35.060Z,3.25
2018-12-23T01:56:47.407Z,3.25
2018-12-23T01:56:59.732Z,3.25
2018-12-23T01:57:12.124Z,3.25
2018-12-23T01:57:24.472Z,3.25
2018-12-23T01:57:36.838Z,3.25
2018-12-23T01:57:49.177Z,3.25
2018-12-23T01:58:01.544Z,3.56
2018-12-23T01:58:13.885Z,3.56
2018-12-23T01:58:26.238Z,3.56
2018-12-23T01:58:38.563Z,3.56
2018-12-23T01:58:50.903Z,3.56
2018-12-23T01:59:03.252Z,3.56
2018-12-23T01:59:15.616Z,3.56
2018-12-23T01:59:28.000Z,3.56
2018-12-23T01:59:40.343Z,3.56
2018-12-23T01:59:52.689Z,3.56
2018-12-23T02:00:05.288Z,3.56
2018-12-23T02:00:17.738Z,3.56
2018-12-23T02:00:30.116Z,3.56
2018-12-23T02:00:42.489Z,3.56
2018-12-23T02:00:54.852Z,3.56
2018-12-23T02:01:07.199Z,3.56
2018-12-23T02:01:19.539Z,3.56
2018-12-23T02:01:31.891Z,3.56
2018-12-23T02:01:44.230Z,3.56
2018-12-23T02:01:56.575Z,3.56
2018-12-23T02:02:08.953Z,3.56
2018-12-23T02:02:21.302Z,3.56
2018-12-23T02:02:33.683Z,3.56
2018-12-23T02:02:46.260Z,3.56
2018-12-23T02:02:58.610Z,3.56
2018-12-23T02:03:10.994Z,3.56
2018-12-23T02:03:23.332Z,3.56
2018-12-23T02:03:35.695Z,3.56
2018-12-23T02:03:48.050Z,3.56
2018-12-23T02:04:00.406Z,3.56
2018-12-23T02:04:12.753Z,3.56
2018-12-23T02:04:25.080Z,3.56
2018-12-23T02:04:37.435Z,3.56
2018-12-23T02:04:49.769Z,3.56
2018-12-23T02:05:02.127Z,3.56
2018-12-23T02:05:14.501Z,3.56
2018-12-23T02:05:26.847Z,3.56
2018-12-23T02:05:47.124Z,3.56
2018-12-23T02:05:59.465Z,3.56
2018-12-23T02:06:13.349Z,3.56
2018-12-23T02:06:25.869Z,3.56
2018-12-23T02:06:38.260Z,3.56
2018-12-23T02:06:50.655Z,3.56
2018-12-23T02:07:02.994Z,3.56
2018-12-23T02:07:15.372Z,3.56
2018-12-23T02:07:27.723Z,3.56
2018-12-23T02:07:40.094Z,3.56
2018-12-23T02:07:52.440Z,3.56
2018-12-23T02:08:04.797Z,3.98
2018-12-23T02:08:17.426Z,3.98
2018-12-23T02:08:29.757Z,3.98
2018-12-23T02:08:42.105Z,3.98
2018-12-23T02:08:54.491Z,3.98
2018-12-23T02:09:06.844Z,3.98
2018-12-23T02:09:19.210Z,3.98
2018-12-23T02:09:31.625Z,3.98
2018-12-23T02:09:43.955Z,3.98
2018-12-23T02:09:56.297Z,3.98
2018-12-23T02:10:08.632Z,3.98
2018-12-23T02:10:20.988Z,3.98
2018-12-23T02:10:33.357Z,3.98
2018-12-23T02:10:45.703Z,3.98
2018-12-23T02:10:58.153Z,3.98
2018-12-23T02:11:10.513Z,3.98
2018-12-23T02:11:22.857Z,3.98
2018-12-23T02:11:35.212Z,3.98
2018-12-23T02:11:47.561Z,3.98
2018-12-23T02:11:59.902Z,3.98
2018-12-23T02:12:12.253Z,3.98
2018-12-23T02:12:24.603Z,3.98
2018-12-23T02:12:37.010Z,3.98
2018-12-23T02:12:49.342Z,3.98
2018-12-23T02:13:01.683Z,3.98
2018-12-23T02:13:14.029Z,3.98
2018-12-23T02:13:26.376Z,3.98
2018-12-23T02:13:38.902Z,3.98
2018-12-23T02:13:51.315Z,3.98
2018-12-23T02:14:03.676Z,3.98
2018-12-23T02:14:16.024Z,3.98
2018-12-23T02:14:28.378Z,3.98
2018-12-23T02:14:40.727Z,3.98
2018-12-23T02:14:53.080Z,3.98
2018-12-23T02:15:05.417Z,3.98
2018-12-23T02:15:17.795Z,3.98
2018-12-23T02:15:30.138Z,3.98
2018-12-23T02:15:42.481Z,3.98
2018-12-23T02:15:54.826Z,3.98
2018-12-23T02:16:07.178Z,3.98
2018-12-23T02:16:19.637Z,3.98
2018-12-23T02:16:34.123Z,3.98
2018-12-23T02:16:46.472Z,3.98
2018-12-23T02:16:58.809Z,3.98
2018-12-23T02:17:11.166Z,3.98
2018-12-23T02:17:23.614Z,3.98
2018-12-23T02:17:36.093Z,3.98
2018-12-23T02:17:48.441Z,3.98
2018-12-23T02:18:00.788Z,4.69
2018-12-23T02:18:13.241Z,4.69
2018-12-23T02:18:25.589Z,4.69
2018-12-23T02:18:37.938Z,4.69
2018-12-23T02:18:50.298Z,4.69
2018-12-23T02:19:02.656Z,4.69
2018-12-23T02:19:15.029Z,4.69
2018-12-23T02:19:27.407Z,4.69
2018-12-23T02:19:39.748Z,4.69
2018-12-23T02:19:52.101Z,4.69
2018-12-23T02:20:04.449Z,4.69
2018-12-23T02:20:16.797Z,4.69
2018-12-23T02:20:29.179Z,4.69
2018-12-23T02:20:41.510Z,4.69
2018-12-23T02:20:53.869Z,4.69
2018-12-23T02:21:06.218Z,4.69
2018-12-23T02:21:18.578Z,4.69
2018-12-23T02:21:31.011Z,4.69
2018-12-23T02:21:43.488Z,4.69
2018-12-23T02:21:55.970Z,4.69
2018-12-23T02:22:08.326Z,4.69
2018-12-23T02:22:20.728Z,4.69
2018-12-23T02:22:33.063Z,4.69
2018-12-23T02:22:45.410Z,4.69
2018-12-23T02:22:57.861Z,4.69
2018-12-23T02:23:10.240Z,4.69
2018-12-23T02:23:22.590Z,4.69
2018-12-23T02:23:34.944Z,4.69
2018-12-23T02:23:47.309Z,4.69
2018-12-23T02:23:59.652Z,4.69
2018-12-23T02:24:12.082Z,4.69
2018-12-23T02:24:24.454Z,4.69
2018-12-23T02:24:36.910Z,4.69
2018-12-23T02:24:49.259Z,4.69
2018-12-23T02:25:01.723Z,4.69
2018-12-23T02:25:14.075Z,4.69
2018-12-23T02:25:26.431Z,4.69
2018-12-23T02:25:38.784Z,4.69
2018-12-23T02:25:51.129Z,4.69
2018-12-23T02:26:03.485Z,4.69
2018-12-23T02:26:15.820Z,4.69
2018-12-23T02:26:28.183Z,4.69
2018-12-23T02:26:40.534Z,4.69
2018-12-23T02:26:53.046Z,4.69
2018-12-23T02:27:05.433Z,4.69
2018-12-23T02:27:17.872Z,4.69
2018-12-23T02:27:30.478Z,4.69
2018-12-23T02:27:42.826Z,4.69
2018-12-23T02:27:55.189Z,5.06
2018-12-23T02:28:07.529Z,5.06
2018-12-23T02:28:19.877Z,5.06
2018-12-23T02:28:32.220Z,5.06
2018-12-23T02:28:44.548Z,5.06
2018-12-23T02:28:56.893Z,5.06
2018-12-23T02:29:09.222Z,5.06
2018-12-23T02:29:21.682Z,5.06
2018-12-23T02:29:34.038Z,5.06
2018-12-23T02:29:46.552Z,5.06
2018-12-23T02:29:59.049Z,5.06
2018-12-23T02:30:11.838Z,5.06
2018-12-23T02:30:24.265Z,5.06
2018-12-23T02:30:36.744Z,5.06
2018-12-23T02:30:49.113Z,5.06
2018-12-23T02:31:01.481Z,5.06
2018-12-23T02:31:13.854Z,5.06
2018-12-23T02:31:26.237Z,5.06
2018-12-23T02:31:38.587Z,5.06
2018-12-23T02:31:50.982Z,5.06
2018-12-23T02:32:03.333Z,5.06
2018-12-23T02:32:15.846Z,5.06
2018-12-23T02:32:28.224Z,5.06
2018-12-23T02:32:40.593Z,5.06
2018-12-23T02:32:52.957Z,5.06
2018-12-23T02:33:05.345Z,5.06
2018-12-23T02:33:17.698Z,5.06
2018-12-23T02:33:30.057Z,5.06
2018-12-23T02:33:42.434Z,5.06
2018-12-23T02:33:54.839Z,5.06
2018-12-23T02:34:07.208Z,5.06
2018-12-23T02:34:19.563Z,5.06
2018-12-23T02:34:31.926Z,5.06
2018-12-23T02:34:44.281Z,5.06
2018-12-23T02:34:56.693Z,5.06
2018-12-23T02:35:09.320Z,5.06
2018-12-23T02:35:21.709Z,5.06
2018-12-23T02:35:34.133Z,5.06
2018-12-23T02:35:55.247Z,5.06
2018-12-23T02:36:07.836Z,5.06
2018-12-23T02:36:20.299Z,5.06
2018-12-23T02:36:32.677Z,5.06
2018-12-23T02:36:45.216Z,5.06
2018-12-23T02:36:57.822Z,5.06
2018-12-23T02:37:10.189Z,5.06
2018-12-23T02:37:22.732Z,5.06
2018-12-23T02:37:35.097Z,5.06
2018-12-23T02:37:47.455Z,5.06
2018-12-23T02:37:59.839Z,5.02
2018-12-23T02:38:12.191Z,5.02
2018-12-23T02:38:24.543Z,5.02
2018-12-23T02:38:36.929Z,5.02
2018-12-23T02:38:49.316Z,5.02
2018-12-23T02:39:04.325Z,5.02
2018-12-23T02:39:16.793Z,5.02
2018-12-23T02:39:29.143Z,5.02
2018-12-23T02:39:41.533Z,5.02
2018-12-23T02:39:53.925Z,5.02
2018-12-23T02:40:06.472Z,5.02
2018-12-23T02:40:18.924Z,5.02
2018-12-23T02:40:31.307Z,5.02
2018-12-23T02:40:43.746Z,5.02
2018-12-23T02:40:56.128Z,5.02
2018-12-23T02:41:08.612Z,5.02
2018-12-23T02:41:20.994Z,5.02
2018-12-23T02:41:42.966Z,5.02
2018-12-23T02:41:55.321Z,5.02
2018-12-23T02:42:07.701Z,5.02
2018-12-23T02:42:20.075Z,5.02
2018-12-23T02:42:32.462Z,5.02
2018-12-23T02:42:44.824Z,5.02
2018-12-23T02:42:57.214Z,5.02
2018-12-23T02:43:09.576Z,5.02
2018-12-23T02:43:22.158Z,5.02
2018-12-23T02:43:34.528Z,5.02
2018-12-23T02:43:46.886Z,5.02
2018-12-23T02:43:59.239Z,5.02
2018-12-23T02:44:11.582Z,5.02
2018-12-23T02:44:23.947Z,5.02
2018-12-23T02:44:36.470Z,5.02
2018-12-23T02:44:48.971Z,5.02
2018-12-23T02:45:01.361Z,5.02
2018-12-23T02:45:13.755Z,5.02
2018-12-23T02:45:26.128Z,5.02
2018-12-23T02:45:38.595Z,5.02
2018-12-23T02:45:50.979Z,5.02
2018-12-23T02:46:03.347Z,5.02
2018-12-23T02:46:15.736Z,5.02
2018-12-23T02:46:28.112Z,5.02
2018-12-23T02:46:40.636Z,5.02
2018-12-23T02:46:53.014Z,5.02
2018-12-23T02:47:05.390Z,5.02
2018-12-23T02:47:17.802Z,5.02
2018-12-23T02:47:30.194Z,5.02
2018-12-23T02:47:42.535Z,5.02
2018-12-23T02:47:54.886Z,5.9